createdAt,value
2023-01-18T00:00:16.568Z,10.47
2023-01-18T00:02:47.056Z,14.03
2023-01-18T00:05:14.739Z,12.70
2023-01-18T00:07:42.143Z,16.37
2023-01-18T00:10:09.747Z,12.27
2023-01-18T00:12:37.015Z,11.23
2023-01-18T00:15:04.784Z,10.03
2023-01-18T00:17:32.091Z,8.27
2023-01-18T00:19:59.367Z,10.23
2023-01-18T00:22:26.701Z,11.33
2023-01-18T00:24:53.945Z,10.53
2023-01-18T00:27:21.321Z,9.20
2023-01-18T00:29:48.973Z,10.27
2023-01-18T00:32:16.986Z,8.93
2023-01-18T00:34:44.351Z,10.07
2023-01-18T00:37:11.671Z,9.30
2023-01-18T00:39:40.927Z,10.00
2023-01-18T00:42:27.108Z,9.17
2023-01-18T00:44:54.403Z,10.33
2023-01-18T00:47:21.605Z,9.63
2023-01-18T00:49:49.144Z,9.47
2023-01-18T00:52:16.541Z,10.53
2023-01-18T00:54:44.200Z,10.87
2023-01-18T00:57:11.534Z,9.67
2023-01-18T00:59:38.855Z,11.60
2023-01-18T01:02:06.807Z,10.93
2023-01-18T01:05:12.960Z,11.27
2023-01-18T01:07:40.304Z,9.60
2023-01-18T01:10:09.116Z,10.13
2023-01-18T01:12:58.414Z,8.73
2023-01-18T01:15:44.393Z,9.37
2023-01-18T01:18:31.920Z,8.50
2023-01-18T01:21:18.007Z,9.53
2023-01-18T01:24:04.181Z,8.83
2023-01-18T01:26:34.951Z,10.30
2023-01-18T01:29:02.324Z,8.93
2023-01-18T01:31:29.587Z,8.30
2023-01-18T01:33:56.969Z,7.40
2023-01-18T01:36:28.490Z,8.20
2023-01-18T01:38:56.272Z,7.17
2023-01-18T01:41:33.789Z,7.83
2023-01-18T01:44:04.650Z,8.97
2023-01-18T01:46:38.314Z,7.87
2023-01-18T01:49:05.687Z,9.33
2023-01-18T01:51:34.053Z,8.60
2023-01-18T01:54:03.472Z,9.70
2023-01-18T01:56:31.303Z,9.63
2023-01-18T01:58:59.629Z,12.33
2023-01-18T02:01:28.156Z,10.33
2023-01-18T02:03:57.674Z,9.80
2023-01-18T02:06:33.325Z,10.80
2023-01-18T02:09:06.102Z,11.87
2023-01-18T02:11:33.420Z,11.03
2023-01-18T02:14:04.098Z,8.90
2023-01-18T02:16:58.310Z,13.20
2023-01-18T02:19:43.976Z,11.03
2023-01-18T02:22:24.228Z,11.90
2023-01-18T02:24:51.706Z,10.77
2023-01-18T02:27:23.406Z,15.67
2023-01-18T02:30:06.078Z,21.13
2023-01-18T02:32:46.893Z,15.23
2023-01-18T02:35:40.663Z,18.00
2023-01-18T02:38:10.697Z,20.90
2023-01-18T02:40:41.742Z,18.30
2023-01-18T02:43:33.171Z,14.37
2023-01-18T02:46:19.835Z,15.23
2023-01-18T02:48:48.187Z,12.43
2023-01-18T02:51:15.546Z,14.07
2023-01-18T02:53:44.823Z,13.77
2023-01-18T02:56:15.209Z,13.23
2023-01-18T02:58:46.187Z,12.70
2023-01-18T03:01:26.984Z,11.50
2023-01-18T03:03:57.530Z,11.07
2023-01-18T03:06:25.800Z,13.23
2023-01-18T03:08:54.596Z,12.17
2023-01-18T03:11:27.720Z,11.43
2023-01-18T03:14:13.971Z,11.13
2023-01-18T03:16:58.392Z,12.20
2023-01-18T03:19:53.276Z,10.13
2023-01-18T03:22:40.712Z,11.17
2023-01-18T03:25:13.180Z,10.40
2023-01-18T03:28:00.429Z,9.73
2023-01-18T03:30:48.468Z,9.20
2023-01-18T03:33:35.329Z,9.57
2023-01-18T03:36:02.821Z,9.50
2023-01-18T03:38:30.752Z,9.53
2023-01-18T03:40:59.662Z,11.33
2023-01-18T03:43:27.735Z,11.00
2023-01-18T03:45:56.383Z,11.67
2023-01-18T03:48:23.717Z,10.37
2023-01-18T03:50:52.150Z,9.10
2023-01-18T03:53:26.127Z,10.03
2023-01-18T03:55:56.268Z,10.63
2023-01-18T03:58:26.013Z,11.03
2023-01-18T04:00:54.020Z,11.13
2023-01-18T04:03:21.330Z,11.60
2023-01-18T04:05:48.629Z,10.37
2023-01-18T04:08:16.485Z,10.30
2023-01-18T04:10:43.906Z,11.83
2023-01-18T04:13:11.340Z,12.77
2023-01-18T04:15:38.617Z,10.30
2023-01-18T04:18:06.575Z,14.00
2023-01-18T04:20:34.239Z,11.37
2023-01-18T04:23:01.671Z,12.27
2023-01-18T04:25:29.160Z,9.27
2023-01-18T04:27:56.395Z,9.60
2023-01-18T04:30:24.003Z,11.23
2023-01-18T04:32:51.217Z,10.67
2023-01-18T04:35:18.604Z,9.77
2023-01-18T04:37:51.312Z,9.63
2023-01-18T04:40:18.728Z,9.93
2023-01-18T04:42:52.036Z,15.40
2023-01-18T04:45:19.814Z,16.80
2023-01-18T04:47:47.541Z,16.80
2023-01-18T04:50:14.921Z,18.77
2023-01-18T04:52:42.195Z,13.20
2023-01-18T04:55:11.266Z,9.90
2023-01-18T04:57:38.649Z,10.57
2023-01-18T05:00:08.578Z,10.50
2023-01-18T05:02:36.211Z,11.43
2023-01-18T05:05:05.276Z,10.87
2023-01-18T05:07:33.929Z,9.60
2023-01-18T05:10:05.150Z,10.63
2023-01-18T05:12:32.409Z,10.03
2023-01-18T05:14:59.615Z,9.20
2023-01-18T05:17:27.835Z,10.13
2023-01-18T05:19:55.503Z,9.73
2023-01-18T05:22:23.231Z,10.43
2023-01-18T05:24:50.551Z,8.07
2023-01-18T05:27:17.995Z,9.67
2023-01-18T05:29:45.504Z,9.67
2023-01-18T05:32:12.894Z,8.73
2023-01-18T05:34:40.262Z,8.00
2023-01-18T05:37:07.715Z,7.10
2023-01-18T05:39:34.991Z,9.63
2023-01-18T05:42:02.384Z,8.63
2023-01-18T05:44:29.668Z,9.33
2023-01-18T05:46:57.114Z,9.37
2023-01-18T05:49:24.375Z,7.63
2023-01-18T05:51:51.730Z,7.90
2023-01-18T05:54:20.121Z,7.20
2023-01-18T05:56:47.748Z,5.47
2023-01-18T05:59:15.726Z,6.13
2023-01-18T06:01:43.145Z,6.67
2023-01-18T06:04:10.434Z,4.53
2023-01-18T06:06:37.672Z,4.07
2023-01-18T06:09:05.012Z,4.07
2023-01-18T06:11:32.348Z,5.80
2023-01-18T06:13:59.827Z,4.70
2023-01-18T06:16:27.324Z,4.40
2023-01-18T06:18:54.988Z,5.07
2023-01-18T06:21:22.284Z,5.40
2023-01-18T06:23:49.776Z,5.37
2023-01-18T06:26:17.061Z,5.37
2023-01-18T06:28:44.337Z,5.00
2023-01-18T06:31:11.660Z,4.13
2023-01-18T06:33:39.213Z,4.67
2023-01-18T06:36:07.028Z,4.20
2023-01-18T06:38:34.549Z,4.00
2023-01-18T06:41:01.916Z,3.87
2023-01-18T06:43:29.544Z,4.20
2023-01-18T06:45:56.902Z,4.30
2023-01-18T06:48:24.635Z,4.33
2023-01-18T06:50:55.114Z,4.30
2023-01-18T06:53:22.617Z,4.20
2023-01-18T06:56:00.027Z,3.93
2023-01-18T06:58:27.841Z,4.20
2023-01-18T07:00:56.466Z,4.30
2023-01-18T07:03:24.285Z,4.50
2023-01-18T07:05:53.415Z,4.30
2023-01-18T07:08:21.102Z,4.17
2023-01-18T07:10:49.540Z,4.40
2023-01-18T07:13:16.829Z,4.97
2023-01-18T07:15:44.236Z,4.67
2023-01-18T07:18:11.617Z,5.17
2023-01-18T07:20:39.247Z,5.47
2023-01-18T07:23:06.553Z,5.67
2023-01-18T07:25:33.850Z,6.77
2023-01-18T07:28:01.087Z,6.50
2023-01-18T07:30:28.363Z,6.97
2023-01-18T07:32:56.088Z,4.20
2023-01-18T07:35:23.580Z,5.00
2023-01-18T07:37:52.522Z,4.70
2023-01-18T07:40:21.340Z,3.50
2023-01-18T07:42:49.310Z,4.13
2023-01-18T07:45:16.820Z,4.37
2023-01-18T07:47:46.348Z,5.60
2023-01-18T07:50:14.454Z,4.10
2023-01-18T07:52:42.023Z,3.60
2023-01-18T07:55:09.754Z,3.67
2023-01-18T07:57:37.400Z,4.20
2023-01-18T08:00:07.287Z,4.60
2023-01-18T08:02:35.272Z,5.77
2023-01-18T08:05:03.763Z,4.50
2023-01-18T08:07:32.972Z,3.67
2023-01-18T08:10:00.317Z,3.73
2023-01-18T08:12:27.969Z,3.30
2023-01-18T08:14:55.223Z,4.90
2023-01-18T08:17:22.612Z,6.97
2023-01-18T08:19:50.046Z,4.00
2023-01-18T08:22:17.303Z,3.50
2023-01-18T08:24:44.523Z,3.10
2023-01-18T08:27:11.790Z,3.23
2023-01-18T08:29:39.348Z,3.10
2023-01-18T08:32:06.566Z,3.00
2023-01-18T08:34:33.814Z,2.90
2023-01-18T08:37:01.053Z,3.13
2023-01-18T08:39:28.660Z,3.10
2023-01-18T08:41:55.911Z,3.40
2023-01-18T08:44:23.206Z,3.37
2023-01-18T08:46:50.846Z,3.60
2023-01-18T08:49:18.110Z,3.70
2023-01-18T08:51:46.532Z,3.87
2023-01-18T08:54:13.934Z,3.90
2023-01-18T08:56:41.337Z,3.90
2023-01-18T08:59:09.478Z,3.60
2023-01-18T13:10:26.204Z,4.40
2023-01-18T13:12:55.273Z,5.57
2023-01-18T13:15:34.786Z,5.03
2023-01-18T13:18:25.193Z,4.00
2023-01-18T13:20:59.384Z,6.13
2023-01-18T13:23:31.328Z,7.17
2023-01-18T13:26:08.398Z,4.47
2023-01-18T13:28:37.227Z,4.17
2023-01-18T13:31:06.351Z,5.07
2023-01-18T13:33:35.209Z,4.73
2023-01-18T13:36:05.300Z,4.43
2023-01-18T13:38:41.747Z,5.43
2023-01-18T13:41:11.579Z,4.50
2023-01-18T13:43:40.394Z,4.20
2023-01-18T13:46:07.960Z,21.23
2023-01-18T13:48:50.948Z,7.50
2023-01-18T13:51:37.212Z,6.80
2023-01-18T13:54:04.542Z,5.77
2023-01-18T13:56:33.415Z,5.10
2023-01-18T13:59:12.854Z,6.37
2023-01-18T14:01:43.215Z,5.63
2023-01-18T14:04:31.932Z,5.30
2023-01-18T14:07:00.755Z,4.40
2023-01-18T14:09:45.671Z,5.07
2023-01-18T14:12:13.078Z,6.23
2023-01-18T14:14:55.422Z,4.10
2023-01-18T14:17:25.127Z,4.30
2023-01-18T14:20:19.212Z,4.53
2023-01-18T14:23:01.674Z,4.40
2023-01-18T14:25:29.324Z,4.07
2023-01-18T14:28:02.865Z,9.80
2023-01-18T14:30:31.981Z,5.20
2023-01-18T14:33:02.630Z,4.70
2023-01-18T14:35:30.069Z,4.27
2023-01-18T14:38:17.395Z,4.03
2023-01-18T14:40:46.732Z,4.77
2023-01-18T14:43:22.202Z,4.13
2023-01-18T14:45:55.785Z,5.57
2023-01-18T14:48:24.288Z,4.10
2023-01-18T14:50:52.935Z,3.93
2023-01-18T14:53:26.053Z,4.73
2023-01-18T14:56:04.598Z,6.73
2023-01-18T14:58:35.668Z,4.67
2023-01-18T15:01:03.354Z,4.70
2023-01-18T15:03:31.559Z,5.13
2023-01-18T15:06:05.008Z,6.17
2023-01-18T15:08:34.619Z,4.57
2023-01-18T15:11:05.103Z,6.63
2023-01-18T15:13:32.709Z,7.87
2023-01-18T15:16:02.939Z,4.67
2023-01-18T15:18:30.747Z,4.87
2023-01-18T15:21:00.255Z,4.73
2023-01-18T15:23:28.011Z,5.53
2023-01-18T15:25:55.802Z,4.10
2023-01-18T15:28:25.430Z,4.63
2023-01-18T15:30:54.928Z,3.80
2023-01-18T15:33:23.435Z,4.63
2023-01-18T15:35:53.300Z,4.23
2023-01-18T15:38:21.115Z,8.20
2023-01-18T15:40:57.552Z,4.40
2023-01-18T15:43:30.929Z,5.93
2023-01-18T15:45:58.848Z,6.13
2023-01-18T15:48:28.094Z,4.83
2023-01-18T15:50:56.647Z,10.50
2023-01-18T15:53:28.853Z,4.30
2023-01-18T15:56:03.376Z,5.40
2023-01-18T15:58:39.863Z,3.70
2023-01-18T16:01:07.907Z,5.10
2023-01-18T16:03:55.784Z,7.47
2023-01-18T16:06:23.092Z,4.00
2023-01-18T16:09:11.524Z,4.27
2023-01-18T16:11:45.891Z,4.57
2023-01-18T16:14:28.059Z,5.60
2023-01-18T16:16:56.784Z,7.10
2023-01-18T16:19:29.382Z,5.00
2023-01-18T16:22:02.543Z,9.37
2023-01-18T16:24:32.989Z,7.73
2023-01-18T16:27:11.448Z,6.47
2023-01-18T16:29:44.078Z,4.53
2023-01-18T16:32:30.388Z,5.20
2023-01-18T16:35:02.919Z,5.23
2023-01-18T16:37:30.795Z,8.60
2023-01-18T16:39:59.260Z,4.83
2023-01-18T16:42:37.628Z,6.47
2023-01-18T16:45:05.732Z,6.17
2023-01-18T16:47:33.716Z,4.50
2023-01-18T16:50:02.304Z,4.20
2023-01-18T16:52:30.576Z,4.30
2023-01-18T16:54:58.793Z,5.47
2023-01-18T16:57:26.934Z,5.57
2023-01-18T16:59:55.055Z,4.30
2023-01-18T17:02:23.363Z,4.50
2023-01-18T17:04:51.137Z,5.97
2023-01-18T17:07:18.860Z,9.47
2023-01-18T17:09:49.217Z,7.83
2023-01-18T17:12:17.023Z,10.23
2023-01-18T17:14:44.515Z,13.87
2023-01-18T17:17:12.158Z,11.63
2023-01-18T17:19:42.055Z,11.40
2023-01-18T17:22:09.443Z,11.30
2023-01-18T17:24:36.818Z,12.07
2023-01-18T17:27:04.581Z,9.73
2023-01-18T17:29:31.893Z,11.60
2023-01-18T17:31:59.321Z,13.20
2023-01-18T17:34:29.109Z,14.97
2023-01-18T17:36:58.644Z,12.00
2023-01-18T17:39:42.443Z,14.33
2023-01-18T17:42:14.264Z,14.37
2023-01-18T17:44:43.871Z,14.20
2023-01-18T17:47:11.119Z,18.70
2023-01-18T17:49:38.706Z,18.70
2023-01-18T17:52:06.249Z,18.07
2023-01-18T17:54:34.969Z,14.17
2023-01-18T17:57:02.602Z,11.27
2023-01-18T17:59:29.830Z,10.90
2023-01-18T18:01:57.174Z,11.20
2023-01-18T18:04:24.558Z,8.67
2023-01-18T18:06:54.497Z,9.60
2023-01-18T18:09:21.925Z,8.43
2023-01-18T18:11:49.295Z,9.10
2023-01-18T18:14:17.707Z,10.67
2023-01-18T18:16:45.256Z,7.07
2023-01-18T18:19:15.937Z,8.43
2023-01-18T18:21:43.642Z,9.37
2023-01-18T18:24:10.961Z,8.33
2023-01-18T18:26:38.455Z,6.93
2023-01-18T18:29:05.783Z,5.97
2023-01-18T18:31:33.219Z,9.33
2023-01-18T18:34:00.640Z,8.00
2023-01-18T18:36:28.241Z,7.73
2023-01-18T18:38:55.553Z,11.50
2023-01-18T18:41:22.794Z,11.47
2023-01-18T18:43:50.153Z,9.53
2023-01-18T18:46:17.406Z,12.03
2023-01-18T18:48:44.780Z,16.30
2023-01-18T18:51:12.093Z,11.20
2023-01-18T18:53:40.576Z,12.40
2023-01-18T18:56:10.269Z,11.97
2023-01-18T18:58:38.613Z,9.60
2023-01-18T19:01:06.366Z,7.20
2023-01-18T19:03:36.231Z,7.23
2023-01-18T19:06:03.459Z,8.20
2023-01-18T19:08:31.110Z,7.70
2023-01-18T19:10:58.451Z,9.87
2023-01-18T19:13:26.025Z,7.67
2023-01-18T19:15:53.264Z,11.43
2023-01-18T19:18:20.571Z,7.53
2023-01-18T19:20:50.915Z,8.03
2023-01-18T19:23:18.446Z,10.10
2023-01-18T19:25:45.818Z,8.07
2023-01-18T19:28:13.278Z,7.03
2023-01-18T19:30:41.874Z,8.13
2023-01-18T19:33:09.189Z,6.73
2023-01-18T19:35:40.924Z,6.80
2023-01-18T19:38:08.860Z,8.57
2023-01-18T19:40:36.863Z,8.13
2023-01-18T19:43:04.202Z,8.80
2023-01-18T19:45:32.144Z,10.53
2023-01-18T19:48:00.607Z,7.77
2023-01-18T19:50:28.779Z,9.80
2023-01-18T19:52:56.463Z,14.90
2023-01-18T19:55:25.168Z,9.17
2023-01-18T19:57:55.330Z,9.40
2023-01-18T20:00:22.645Z,8.73
2023-01-18T20:02:50.353Z,9.40
2023-01-18T20:05:17.928Z,7.77
2023-01-18T20:07:45.291Z,8.83
2023-01-18T20:10:12.784Z,9.43
2023-01-18T20:12:40.494Z,9.43
2023-01-18T20:15:08.113Z,8.37
2023-01-18T20:17:35.452Z,9.37
2023-01-18T20:20:02.683Z,9.17
2023-01-18T20:22:31.198Z,6.80
2023-01-18T20:24:58.527Z,7.20
2023-01-18T20:27:25.870Z,7.67
2023-01-18T20:29:53.147Z,7.70
2023-01-18T20:32:20.586Z,9.33
2023-01-18T20:34:48.661Z,9.83
2023-01-18T20:37:16.459Z,10.20
2023-01-18T20:39:43.933Z,11.77
2023-01-18T20:42:11.359Z,9.70
2023-01-18T20:44:38.746Z,11.43
2023-01-18T20:47:06.475Z,13.87
2023-01-18T20:49:38.426Z,14.80
2023-01-18T20:52:07.108Z,11.67
2023-01-18T20:54:36.207Z,12.60
2023-01-18T20:57:04.127Z,12.80
2023-01-18T20:59:31.478Z,8.73
2023-01-18T21:01:58.856Z,7.10
2023-01-18T21:04:26.417Z,9.07
2023-01-18T21:06:54.414Z,9.77
2023-01-18T21:09:21.682Z,8.57
2023-01-18T21:11:48.914Z,9.17
2023-01-18T21:14:16.507Z,9.10
2023-01-18T21:16:44.280Z,8.90
2023-01-18T21:19:11.552Z,8.03
2023-01-18T21:21:38.864Z,12.47
2023-01-18T21:24:06.344Z,11.47
2023-01-18T21:26:33.766Z,44.27
2023-01-18T21:29:01.145Z,14.67
2023-01-18T21:31:28.416Z,15.43
2023-01-18T21:33:56.231Z,16.43
2023-01-18T21:36:23.554Z,11.83
2023-01-18T21:38:51.245Z,10.63
2023-01-18T21:41:37.246Z,13.27
2023-01-18T21:44:23.247Z,10.07
2023-01-18T21:46:51.890Z,9.33
2023-01-18T21:52:46.643Z,9.47
2023-01-18T21:55:15.402Z,8.50
2023-01-18T21:57:43.005Z,10.73
2023-01-18T22:00:10.764Z,7.90
2023-01-18T22:02:38.272Z,9.30
2023-01-18T22:05:05.902Z,9.47
2023-01-18T22:07:34.594Z,8.00
2023-01-18T22:10:07.046Z,11.70
2023-01-18T22:12:36.213Z,8.33
2023-01-18T22:15:04.886Z,12.83
2023-01-18T22:17:32.482Z,10.80
2023-01-18T22:20:00.372Z,11.53
2023-01-18T22:22:28.194Z,9.90
2023-01-18T22:24:56.604Z,12.83
2023-01-18T22:27:23.891Z,10.50
2023-01-18T22:29:51.397Z,11.60
2023-01-18T22:32:18.725Z,11.77
2023-01-18T22:34:46.143Z,13.27
2023-01-18T22:37:15.838Z,11.70
2023-01-18T22:39:43.165Z,10.67
2023-01-18T22:42:10.449Z,9.57
2023-01-18T22:44:38.002Z,12.07
2023-01-18T22:47:05.370Z,10.47
2023-01-18T22:49:32.635Z,10.13
2023-01-18T22:52:01.077Z,10.13
2023-01-18T22:54:28.834Z,12.27
2023-01-18T22:56:56.361Z,11.50
2023-01-18T22:59:23.635Z,12.97
2023-01-18T23:01:51.012Z,11.60
2023-01-18T23:04:18.965Z,13.20
2023-01-18T23:06:47.937Z,13.67
2023-01-18T23:09:16.087Z,13.10
2023-01-18T23:11:43.474Z,12.67
2023-01-18T23:14:29.440Z,11.93
2023-01-18T23:17:15.269Z,16.13
2023-01-18T23:19:42.585Z,13.90
2023-01-18T23:22:10.725Z,11.83
2023-01-18T23:24:38.381Z,14.27
2023-01-18T23:27:06.537Z,12.20
2023-01-18T23:29:34.439Z,13.33
2023-01-18T23:32:02.002Z,13.90
2023-01-18T23:34:29.298Z,16.03
2023-01-18T23:36:56.595Z,15.70
2023-01-18T23:39:42.449Z,14.93
2023-01-18T23:42:28.572Z,16.53
2023-01-18T23:45:14.682Z,15.33
2023-01-18T23:48:01.344Z,15.33
2023-01-18T23:50:47.679Z,14.20
2023-01-18T23:53:33.672Z,13.47
2023-01-18T23:56:01.040Z,12.63
2023-01-18T23:58:29.166Z,12.37
